Time;durP1;ratioP1;P1;durP2;ratioP2;P2;SDS_P1;SDS_P2;PMS_P1;PMS_P2;Temp;Humidity;BMP_temperature;BMP_pressure;BME280_temperature;BME280_humidity;BME280_pressure;Samples;Min_cycle;Max_cycle;Signal;HPM_P1;HPM_P2
2022/06/14 00:01:44;;;;;;;;;;;;;;;;;;6205228;23;20415;-84
2022/06/14 00:04:15;;;;;;;;;;;;;;;;;;6167031;23;19920;-84
2022/06/14 00:07:06;;;;;;;;;;;;;;;;;;6174819;23;19920;-84
2022/06/14 00:09:52;;;;;;;;;;;;;;;;;;;;;
2022/06/14 00:12:27;;;;;;;;;;;;;;;;;;6163818;23;20566;-84
2022/06/14 00:15:04;;;;;;;;;;;;;;;;;;6143945;23;20384;-84
2022/06/14 00:17:35;;;;;;;;;;;;;;;;;;6143227;23;20316;-83
2022/06/14 00:22:55;;;;;;;;;;;;;;;;;;6170801;23;20361;-84
2022/06/14 00:25:30;;;;;;;;;;;;;;;;;;6146069;23;19931;-84
2022/06/14 00:52:47;;;;;;;;;;;;;;;;;;4431153;27;18545550;-82
2022/06/14 00:55:30;;;;;;;;;;;;;;;;;;5055806;28;19933;-82
2022/06/14 01:04:32;;;;;;;;;;;;;;;;;;;;;
2022/06/14 01:07:14;;;;;;;;;;;;;;;;;;5086278;28;20363;-82
2022/06/14 01:10:17;;;;;;;;;;;;;;;;;;;;;
2022/06/14 01:13:18;;;;;;;;;;;;;;;;;;;;;
2022/06/14 01:16:16;;;;;;;;;;;;;;;;;;;;;
2022/06/14 01:19:04;;;;;;;;;;;;;;;;;;;;;
2022/06/14 01:28:38;;;;;;;;;;;;;;;;;;5039511;28;19959;-82
2022/06/14 01:31:08;;;;;;;;;;;;;;;;;;;;;
2022/06/14 01:33:57;;;;;;;;;;;;;;;;;;5013947;28;20058;-82
2022/06/14 01:37:15;;;;;;;;;;;;;;;;;;;;;
2022/06/14 01:48:27;;;;;;;;;;;;;;;;;;4925783;28;19933;-82
2022/06/14 01:52:13;;;;;;;;;;;;;;;;;;4927158;28;19930;-82
2022/06/14 01:57:24;;;;;;;;;;;;;;;;;;4948680;28;19925;-82
2022/06/14 02:00:06;;;;;;;;;;;;;;;;;;4959134;28;20094;-82
2022/06/14 02:11:35;;;;;;;;;;;;;;;;;;4926996;28;19977;-82
2022/06/14 02:26:36;;;;;;;;;;;;;;;;;;4873968;29;20282;-82
2022/06/14 02:29:33;;;;;;;;;;;;;;;;;;4858191;28;20355;-83
2022/06/14 02:35:50;;;;;;;;;;;;;;;;;;4930170;28;19930;-82
2022/06/14 02:39:06;;;;;;;;;;;;;;;;;;;;;
2022/06/14 02:48:51;;;;;;;;;;;;;;;;;;4981229;28;19921;-83
2022/06/14 02:51:00;;;;;;;;;;;;;;;;;;5048557;28;19935;-83
2022/06/14 03:03:44;;;;;;;;;;;;;;;;;;4967486;28;19933;-83
2022/06/14 03:49:11;;;;;;;;;;;;;;;;;;;;;
2022/06/14 03:52:03;;;;;;;;;;;;;;;;;;4885850;29;19927;-83
2022/06/14 03:55:18;;;;;;;;;;;;;;;;;;;;;
2022/06/14 03:58:01;;;;;;;;;;;;;;;;;;;;;
2022/06/14 04:00:49;;;;;;;;;;;;;;;;;;4787435;29;19988;-82
2022/06/14 04:03:23;;;;;;;;;;;;;;;;;;4795716;29;20023;-82
2022/06/14 04:06:15;;;;;;;;;;;;;;;;;;4801475;29;19993;-86
2022/06/14 04:08:51;;;;;;;;;;;;;;;;;;4816752;29;19952;-85
2022/06/14 04:14:25;;;;;;;;;;;;;;;;;;;;;
2022/06/14 04:17:05;;;;;;;;;;;;;;;;;;4922790;28;19931;-86
2022/06/14 04:19:36;;;;;;;;;;;;;;;;;;4920213;28;19994;-86
2022/06/14 04:22:11;;;;;;;;;;;;;;;;;;4909041;28;19978;-86
2022/06/14 04:27:59;;;;;;;;;;;;;;;;;;4878537;29;19996;-85
2022/06/14 04:33:30;;;;;;;;;;;;;;;;;;4876586;29;19927;-86
2022/06/14 04:42:11;;;;;;;;;;;;;;;;;;4928130;28;21560;-85
2022/06/14 04:44:55;;;;;;;;;;;;;;;;;;4943979;28;20354;-85
2022/06/14 04:47:34;;;;;;;;;;;;;;;;;;;;;
2022/06/14 04:50:33;;;;;;;;;;;;;;;;;;4940558;28;19974;-86
2022/06/14 04:53:05;;;;;;;;;;;;;;;;;;4923971;28;19926;-86
2022/06/14 05:29:39;;;;;;;;;;;;;;;;;;5049029;28;19975;-87
2022/06/14 05:32:05;;;;;;;;;;;;;;;;;;5053792;28;20011;-87
2022/06/14 05:34:31;;;;;;;;;;;;;;;;;;5049409;28;19944;-87
2022/06/14 05:36:57;;;;;;;;;;;;;;;;;;5034980;28;19920;-87
2022/06/14 05:39:23;;;;;;;;;;;;;;;;;;5027669;28;19975;-87
2022/06/14 05:41:49;;;;;;;;;;;;;;;;;;5041352;28;20574;-87
2022/06/14 05:44:15;;;;;;;;;;;;;;;;;;5048544;28;19929;-87
2022/06/14 05:46:41;;;;;;;;;;;;;;;;;;5022920;28;19931;-87
2022/06/14 05:49:10;;;;;;;;;;;;;;;;;;5029119;28;19955;-87
2022/06/14 05:51:36;;;;;;;;;;;;;;;;;;5034994;28;20023;-87
2022/06/14 05:54:02;;;;;;;;;;;;;;;;;;5018620;28;20007;-86
2022/06/14 05:56:31;;;;;;;;;;;;;;;;;;5022682;28;19935;-87
2022/06/14 05:58:57;;;;;;;;;;;;;;;;;;5037502;28;19983;-87
2022/06/14 06:01:23;;;;;;;;;;;;;;;;;;5027662;28;19928;-87
2022/06/14 06:03:49;;;;;;;;;;;;;;;;;;5026543;28;19929;-87
2022/06/14 06:06:21;;;;;;;;;;;;;;;;;;5029184;28;19975;-86
2022/06/14 06:08:46;;;;;;;;;;;;;;;;;;5028708;28;20758;-87
2022/06/14 06:11:12;;;;;;;;;;;;;;;;;;5036214;28;19933;-86
2022/06/14 06:13:38;;;;;;;;;;;;;;;;;;5019541;28;19920;-86
2022/06/14 06:16:04;;;;;;;;;;;;;;;;;;5039347;28;20014;-86
2022/06/14 06:18:31;;;;;;;;;;;;;;;;;;5033230;28;20008;-87
2022/06/14 06:20:57;;;;;;;;;;;;;;;;;;5032620;28;20374;-86
2022/06/14 06:23:23;;;;;;;;;;;;;;;;;;5036321;28;19928;-87
2022/06/14 06:25:48;;;;;;;;;;;;;;;;;;5021295;28;19955;-87
2022/06/14 06:28:14;;;;;;;;;;;;;;;;;;5039694;28;19932;-87
2022/06/14 06:30:40;;;;;;;;;;;;;;;;;;5029880;28;19931;-87
2022/06/14 06:33:10;;;;;;;;;;;;;;;;;;5039142;28;19935;-86
2022/06/14 06:35:36;;;;;;;;;;;;;;;;;;5027195;28;19928;-87
2022/06/14 06:38:02;;;;;;;;;;;;;;;;;;5032353;28;19928;-87
2022/06/14 06:40:28;;;;;;;;;;;;;;;;;;5043171;28;20351;-87
2022/06/14 06:42:56;;;;;;;;;;;;;;;;;;5034503;28;20406;-87
2022/06/14 06:45:22;;;;;;;;;;;;;;;;;;5034934;28;20280;-87
2022/06/14 06:47:48;;;;;;;;;;;;;;;;;;5043933;28;19932;-87
2022/06/14 06:50:14;;;;;;;;;;;;;;;;;;5048151;28;19923;-87
2022/06/14 06:52:40;;;;;;;;;;;;;;;;;;5032349;28;20019;-87
2022/06/14 06:55:06;;;;;;;;;;;;;;;;;;5049197;28;19993;-87
2022/06/14 06:57:32;;;;;;;;;;;;;;;;;;5031340;28;20298;-87
2022/06/14 06:59:58;;;;;;;;;;;;;;;;;;5034861;28;20337;-87
2022/06/14 07:02:24;;;;;;;;;;;;;;;;;;5040390;28;19978;-87
2022/06/14 07:05:05;;;;;;;;;;;;;;;;;;5029723;28;20019;-87
2022/06/14 07:07:31;;;;;;;;;;;;;;;;;;5048870;28;20298;-87
2022/06/14 07:09:57;;;;;;;;;;;;;;;;;;5053879;28;19920;-87
2022/06/14 07:12:23;;;;;;;;;;;;;;;;;;5053773;28;19932;-87
2022/06/14 07:14:49;;;;;;;;;;;;;;;;;;5028621;28;19921;-87
2022/06/14 07:17:15;;;;;;;;;;;;;;;;;;5053282;28;19934;-88
2022/06/14 07:19:41;;;;;;;;;;;;;;;;;;5035092;28;19963;-88
2022/06/14 07:22:07;;;;;;;;;;;;;;;;;;5047835;28;19928;-87
2022/06/14 07:24:34;;;;;;;;;;;;;;;;;;5041522;28;20015;-88
2022/06/14 07:27:00;;;;;;;;;;;;;;;;;;5042779;28;19924;-88
2022/06/14 07:29:27;;;;;;;;;;;;;;;;;;5018683;28;19974;-88
2022/06/14 07:31:52;;;;;;;;;;;;;;;;;;5045848;28;19928;-87
2022/06/14 07:34:18;;;;;;;;;;;;;;;;;;5048518;28;19970;-88
2022/06/14 07:36:44;;;;;;;;;;;;;;;;;;5048210;28;19928;-88
2022/06/14 07:39:10;;;;;;;;;;;;;;;;;;5049320;28;19928;-88
2022/06/14 07:41:36;;;;;;;;;;;;;;;;;;5043249;28;19932;-88
2022/06/14 07:44:02;;;;;;;;;;;;;;;;;;5049269;28;20325;-88
2022/06/14 07:46:28;;;;;;;;;;;;;;;;;;5035928;28;20282;-88
2022/06/14 07:48:54;;;;;;;;;;;;;;;;;;5048686;28;19928;-88
2022/06/14 07:51:21;;;;;;;;;;;;;;;;;;5030026;28;20387;-88
2022/06/14 07:53:47;;;;;;;;;;;;;;;;;;5026959;28;20804;-89
2022/06/14 07:56:13;;;;;;;;;;;;;;;;;;5034975;28;19947;-88
2022/06/14 07:58:38;;;;;;;;;;;;;;;;;;5030840;28;19920;-88
2022/06/14 08:01:08;;;;;;;;;;;;;;;;;;5031987;28;19924;-88
2022/06/14 08:03:35;;;;;;;;;;;;;;;;;;5025383;28;19931;-87
2022/06/14 08:06:01;;;;;;;;;;;;;;;;;;5014750;28;19936;-88
2022/06/14 08:08:27;;;;;;;;;;;;;;;;;;5046771;28;21555;-88
2022/06/14 08:10:53;;;;;;;;;;;;;;;;;;5047541;28;20425;-88
2022/06/14 08:13:19;;;;;;;;;;;;;;;;;;5047605;28;19924;-88
2022/06/14 08:15:45;;;;;;;;;;;;;;;;;;5043278;28;19959;-88
2022/06/14 08:18:11;;;;;;;;;;;;;;;;;;5027307;28;19989;-89
2022/06/14 08:20:37;;;;;;;;;;;;;;;;;;5027050;28;19920;-88
2022/06/14 08:23:03;;;;;;;;;;;;;;;;;;5033009;28;19936;-88
2022/06/14 08:25:29;;;;;;;;;;;;;;;;;;5028717;28;19931;-88
2022/06/14 08:27:55;;;;;;;;;;;;;;;;;;5033952;28;19986;-88
2022/06/14 08:30:22;;;;;;;;;;;;;;;;;;5035442;28;19924;-88
2022/06/14 08:32:48;;;;;;;;;;;;;;;;;;5030925;28;19938;-89
2022/06/14 08:35:14;;;;;;;;;;;;;;;;;;5031646;28;20386;-89
2022/06/14 08:37:40;;;;;;;;;;;;;;;;;;5032515;28;20873;-89
2022/06/14 08:40:06;;;;;;;;;;;;;;;;;;5018618;28;19927;-89
2022/06/14 08:42:32;;;;;;;;;;;;;;;;;;5033244;28;19931;-89
2022/06/14 08:44:57;;;;;;;;;;;;;;;;;;5016797;28;19967;-89
2022/06/14 08:47:23;;;;;;;;;;;;;;;;;;5049059;28;19924;-88
2022/06/14 08:49:52;;;;;;;;;;;;;;;;;;5015222;28;20636;-88
2022/06/14 08:52:18;;;;;;;;;;;;;;;;;;5031768;28;20851;-88
2022/06/14 08:54:44;;;;;;;;;;;;;;;;;;5027124;28;19928;-88
2022/06/14 08:57:10;;;;;;;;;;;;;;;;;;5035561;28;19921;-88
2022/06/14 08:59:35;;;;;;;;;;;;;;;;;;5034788;28;20011;-88
2022/06/14 09:02:01;;;;;;;;;;;;;;;;;;5033910;28;19959;-88
2022/06/14 09:04:27;;;;;;;;;;;;;;;;;;5029414;28;19921;-88
2022/06/14 09:06:53;;;;;;;;;;;;;;;;;;5032191;28;19977;-88
2022/06/14 09:09:19;;;;;;;;;;;;;;;;;;5023522;28;19997;-88
2022/06/14 09:11:45;;;;;;;;;;;;;;;;;;5015654;28;19928;-88
2022/06/14 09:14:11;;;;;;;;;;;;;;;;;;5050854;28;19921;-88
2022/06/14 09:16:37;;;;;;;;;;;;;;;;;;5035021;28;19921;-88
2022/06/14 09:19:03;;;;;;;;;;;;;;;;;;5042486;28;20046;-88
2022/06/14 09:21:29;;;;;;;;;;;;;;;;;;5022274;28;19925;-88
2022/06/14 09:23:55;;;;;;;;;;;;;;;;;;5056030;28;19924;-89
2022/06/14 09:26:21;;;;;;;;;;;;;;;;;;5054886;28;20030;-89
2022/06/14 09:28:47;;;;;;;;;;;;;;;;;;5061367;28;20013;-88
2022/06/14 09:31:13;;;;;;;;;;;;;;;;;;5073536;28;19983;-89
2022/06/14 09:33:39;;;;;;;;;;;;;;;;;;5057040;28;19929;-88
2022/06/14 09:36:05;;;;;;;;;;;;;;;;;;5058887;28;19931;-88
2022/06/14 09:38:31;;;;;;;;;;;;;;;;;;5068365;28;19928;-88
2022/06/14 09:40:57;;;;;;;;;;;;;;;;;;5041578;28;19920;-89
2022/06/14 09:43:23;;;;;;;;;;;;;;;;;;5059502;28;19928;-88
2022/06/14 09:45:49;;;;;;;;;;;;;;;;;;5053372;28;19958;-88
2022/06/14 09:48:15;;;;;;;;;;;;;;;;;;5072480;28;19931;-88
2022/06/14 09:50:42;;;;;;;;;;;;;;;;;;5070522;28;20306;-88
2022/06/14 09:53:08;;;;;;;;;;;;;;;;;;5078661;28;19928;-88
2022/06/14 09:55:34;;;;;;;;;;;;;;;;;;5061039;28;20238;-88
2022/06/14 09:58:00;;;;;;;;;;;;;;;;;;5071780;28;19929;-89
2022/06/14 10:00:26;;;;;;;;;;;;;;;;;;5077246;28;19932;-89
2022/06/14 10:02:52;;;;;;;;;;;;;;;;;;5070648;28;19990;-88
2022/06/14 10:05:18;;;;;;;;;;;;;;;;;;5067761;28;19920;-88
2022/06/14 10:07:45;;;;;;;;;;;;;;;;;;5049299;28;20424;-88
2022/06/14 10:10:11;;;;;;;;;;;;;;;;;;5066520;28;20066;-89
2022/06/14 10:12:37;;;;;;;;;;;;;;;;;;5061847;28;19935;-89
2022/06/14 10:15:03;;;;;;;;;;;;;;;;;;5045433;28;20279;-89
2022/06/14 10:17:29;;;;;;;;;;;;;;;;;;5042201;28;19935;-88
2022/06/14 10:19:55;;;;;;;;;;;;;;;;;;5065836;28;19928;-89
2022/06/14 10:22:21;;;;;;;;;;;;;;;;;;5067273;28;19932;-89
2022/06/14 10:24:47;;;;;;;;;;;;;;;;;;5065062;28;20398;-88
2022/06/14 10:29:57;;;;;;;;;;;;;;;;;;5054049;28;19928;-89
2022/06/14 10:32:23;;;;;;;;;;;;;;;;;;5049084;28;20400;-88
2022/06/14 10:34:49;;;;;;;;;;;;;;;;;;5047108;28;19928;-88
2022/06/14 10:37:15;;;;;;;;;;;;;;;;;;5053961;28;19935;-88
2022/06/14 10:39:41;;;;;;;;;;;;;;;;;;5050549;28;19920;-88
2022/06/14 10:42:07;;;;;;;;;;;;;;;;;;5055420;28;19924;-88
2022/06/14 10:44:33;;;;;;;;;;;;;;;;;;5047975;28;19935;-88
2022/06/14 10:46:59;;;;;;;;;;;;;;;;;;5029952;28;19926;-88
2022/06/14 10:49:25;;;;;;;;;;;;;;;;;;5031061;28;20374;-88
2022/06/14 10:51:54;;;;;;;;;;;;;;;;;;5033798;28;20038;-88
2022/06/14 10:54:20;;;;;;;;;;;;;;;;;;5050207;28;20054;-89
2022/06/14 10:56:46;;;;;;;;;;;;;;;;;;5031796;28;20131;-88
2022/06/14 10:59:12;;;;;;;;;;;;;;;;;;5020288;28;20437;-88
2022/06/14 11:01:38;;;;;;;;;;;;;;;;;;5015919;28;19924;-89
2022/06/14 11:04:05;;;;;;;;;;;;;;;;;;5051166;28;19928;-88
2022/06/14 11:06:31;;;;;;;;;;;;;;;;;;5031318;28;19929;-88
2022/06/14 11:08:57;;;;;;;;;;;;;;;;;;5034628;28;19932;-89
2022/06/14 11:11:23;;;;;;;;;;;;;;;;;;5048516;28;19971;-89
2022/06/14 11:13:49;;;;;;;;;;;;;;;;;;5031241;28;20063;-89
2022/06/14 11:16:15;;;;;;;;;;;;;;;;;;5037026;28;19935;-89
2022/06/14 11:18:41;;;;;;;;;;;;;;;;;;5012413;28;19928;-89
2022/06/14 11:21:07;;;;;;;;;;;;;;;;;;5018102;28;20327;-89
2022/06/14 11:23:33;;;;;;;;;;;;;;;;;;5028186;28;19925;-88
2022/06/14 11:26:02;;;;;;;;;;;;;;;;;;5036119;28;20398;-89
2022/06/14 11:28:28;;;;;;;;;;;;;;;;;;5035933;28;20386;-88
2022/06/14 11:30:54;;;;;;;;;;;;;;;;;;5050201;28;19928;-88
2022/06/14 11:33:20;;;;;;;;;;;;;;;;;;5037556;28;22933;-89
2022/06/14 11:35:46;;;;;;;;;;;;;;;;;;5034617;28;21059;-89
2022/06/14 11:38:12;;;;;;;;;;;;;;;;;;5053500;28;19924;-89
2022/06/14 11:40:39;;;;;;;;;;;;;;;;;;5062948;28;20467;-89
2022/06/14 11:43:05;;;;;;;;;;;;;;;;;;5068663;28;20672;-89
2022/06/14 11:45:31;;;;;;;;;;;;;;;;;;5066418;28;19935;-89
2022/06/14 11:47:57;;;;;;;;;;;;;;;;;;5072280;28;19920;-88
2022/06/14 11:50:23;;;;;;;;;;;;;;;;;;5049116;28;19928;-88
2022/06/14 11:52:49;;;;;;;;;;;;;;;;;;5034997;28;20009;-89
2022/06/14 11:55:15;;;;;;;;;;;;;;;;;;5073249;28;19924;-89
2022/06/14 11:57:41;;;;;;;;;;;;;;;;;;5051310;28;20379;-88
2022/06/14 12:00:09;;;;;;;;;;;;;;;;;;5055149;28;19939;-88
2022/06/14 12:02:36;;;;;;;;;;;;;;;;;;5036006;28;19928;-88
2022/06/14 12:05:02;;;;;;;;;;;;;;;;;;5051113;28;19932;-89
2022/06/14 12:07:28;;;;;;;;;;;;;;;;;;5061065;28;19946;-89
2022/06/14 12:09:54;;;;;;;;;;;;;;;;;;5062702;28;19928;-89
2022/06/14 12:12:20;;;;;;;;;;;;;;;;;;5063938;28;19932;-88
2022/06/14 12:14:46;;;;;;;;;;;;;;;;;;5046703;28;20197;-88
2022/06/14 12:17:12;;;;;;;;;;;;;;;;;;5068411;28;20065;-89
2022/06/14 12:19:38;;;;;;;;;;;;;;;;;;5063668;28;20015;-89
2022/06/14 12:22:26;;;;;;;;;;;;;;;;;;5057033;28;19928;-89
2022/06/14 12:27:37;;;;;;;;;;;;;;;;;;5047214;28;19924;-88
2022/06/14 12:30:03;;;;;;;;;;;;;;;;;;5050273;28;19924;-89
2022/06/14 12:32:29;;;;;;;;;;;;;;;;;;5029359;28;21003;-89
2022/06/14 12:34:55;;;;;;;;;;;;;;;;;;5053201;28;19978;-89
2022/06/14 12:37:21;;;;;;;;;;;;;;;;;;5040261;28;19931;-89
2022/06/14 12:39:47;;;;;;;;;;;;;;;;;;5063377;28;22856;-90
2022/06/14 12:42:13;;;;;;;;;;;;;;;;;;5056263;28;20010;-89
2022/06/14 12:44:39;;;;;;;;;;;;;;;;;;5035131;28;19920;-89
2022/06/14 12:47:05;;;;;;;;;;;;;;;;;;5050740;28;20001;-89
2022/06/14 12:49:31;;;;;;;;;;;;;;;;;;5047096;28;19924;-89
2022/06/14 12:51:57;;;;;;;;;;;;;;;;;;5034175;28;19928;-89
2022/06/14 12:54:23;;;;;;;;;;;;;;;;;;5042354;28;19981;-89
2022/06/14 12:57:02;;;;;;;;;;;;;;;;;;;;;
2022/06/14 12:59:36;;;;;;;;;;;;;;;;;;5059335;28;19932;-89
2022/06/14 13:02:11;;;;;;;;;;;;;;;;;;5049478;28;20351;-88
2022/06/14 13:04:37;;;;;;;;;;;;;;;;;;5048797;28;20009;-90
2022/06/14 13:07:03;;;;;;;;;;;;;;;;;;5034694;28;19919;-89
2022/06/14 13:09:29;;;;;;;;;;;;;;;;;;5045138;28;20412;-88
2022/06/14 13:11:58;;;;;;;;;;;;;;;;;;5053283;28;20027;-89
2022/06/14 13:14:24;;;;;;;;;;;;;;;;;;5040583;28;20363;-90
2022/06/14 13:16:50;;;;;;;;;;;;;;;;;;5053987;28;19928;-90
2022/06/14 13:19:16;;;;;;;;;;;;;;;;;;5056294;28;20427;-89
2022/06/14 13:21:44;;;;;;;;;;;;;;;;;;5037513;28;20294;-90
2022/06/14 13:24:13;;;;;;;;;;;;;;;;;;5053100;28;19934;-90
2022/06/14 13:32:07;;;;;;;;;;;;;;;;;;5019758;28;20066;-86
2022/06/14 13:34:34;;;;;;;;;;;;;;;;;;5011029;28;19929;-87
2022/06/14 13:37:09;;;;;;;;;;;;;;;;;;5021361;28;19942;-87
2022/06/14 13:39:43;;;;;;;;;;;;;;;;;;5009779;28;20724;-87
2022/06/14 13:42:18;;;;;;;;;;;;;;;;;;;;;
2022/06/14 13:45:04;;;;;;;;;;;;;;;;;;;;;
2022/06/14 13:47:56;;;;;;;;;;;;;;;;;;5003801;28;19925;-88
2022/06/14 13:53:32;;;;;;;;;;;;;;;;;;4988857;28;20204;-87
2022/06/14 14:02:13;;;;;;;;;;;;;;;;;;;;;
2022/06/14 14:05:31;;;;;;;;;;;;;;;;;;;;;
2022/06/14 14:18:05;;;;;;;;;;;;;;;;;;4901446;29;20326;-87
2022/06/14 14:21:02;;;;;;;;;;;;;;;;;;;;;
2022/06/14 15:34:00;;;;;;;;;;;;;;;;;;1306825;26;19934;-88
2022/06/14 15:36:27;;;;;;;;;;;;;;;;;;4939282;28;19930;-90
2022/06/14 15:38:56;;;;;;;;;;;;;;;;;;4925673;28;19926;-89
2022/06/14 15:41:24;;;;;;;;;;;;;;;;;;4945299;28;20016;-89
2022/06/14 15:43:50;;;;;;;;;;;;;;;;;;4944505;28;19929;-90
2022/06/14 15:46:16;;;;;;;;;;;;;;;;;;4948818;28;19937;-88
2022/06/14 15:48:43;;;;;;;;;;;;;;;;;;4926356;28;20468;-89
2022/06/14 15:51:09;;;;;;;;;;;;;;;;;;4945618;28;19930;-89
2022/06/14 15:53:35;;;;;;;;;;;;;;;;;;4920424;28;19941;-89
2022/06/14 15:56:01;;;;;;;;;;;;;;;;;;4931146;28;19932;-89
2022/06/14 15:58:27;;;;;;;;;;;;;;;;;;4926895;28;19930;-88
2022/06/14 16:00:53;;;;;;;;;;;;;;;;;;4943408;28;20393;-89
2022/06/14 16:03:19;;;;;;;;;;;;;;;;;;4948354;28;20004;-89
2022/06/14 16:05:45;;;;;;;;;;;;;;;;;;4927772;28;19953;-90
2022/06/14 16:08:11;;;;;;;;;;;;;;;;;;4931524;28;19929;-89
2022/06/14 16:10:39;;;;;;;;;;;;;;;;;;4947644;28;21159;-87
2022/06/14 16:13:08;;;;;;;;;;;;;;;;;;4948887;28;19936;-90
2022/06/14 16:15:34;;;;;;;;;;;;;;;;;;4951659;28;20692;-88
2022/06/14 16:18:01;;;;;;;;;;;;;;;;;;4959853;28;19930;-91
2022/06/14 16:20:27;;;;;;;;;;;;;;;;;;4945906;28;19937;-91
2022/06/14 16:22:53;;;;;;;;;;;;;;;;;;4963858;28;19937;-91
2022/06/14 16:25:19;;;;;;;;;;;;;;;;;;4962757;28;20025;-91
2022/06/14 16:27:45;;;;;;;;;;;;;;;;;;4935893;28;19929;-90
2022/06/14 16:30:20;;;;;;;;;;;;;;;;;;4934359;28;20060;-91
2022/06/14 16:32:55;;;;;;;;;;;;;;;;;;4935346;28;19965;-91
2022/06/14 16:35:24;;;;;;;;;;;;;;;;;;4930888;28;19926;-90
2022/06/14 16:37:56;;;;;;;;;;;;;;;;;;4930888;28;19922;-89
2022/06/14 16:40:22;;;;;;;;;;;;;;;;;;4941594;28;19930;-91
2022/06/14 16:42:48;;;;;;;;;;;;;;;;;;4928556;28;19953;-90
2022/06/14 16:45:17;;;;;;;;;;;;;;;;;;4948974;28;19936;-94
2022/06/14 16:47:44;;;;;;;;;;;;;;;;;;4933617;28;19961;-91
2022/06/14 16:50:10;;;;;;;;;;;;;;;;;;4925511;28;20388;-91
2022/06/14 16:52:38;;;;;;;;;;;;;;;;;;4947069;28;19934;-91
2022/06/14 16:55:04;;;;;;;;;;;;;;;;;;4970584;28;19971;-91
2022/06/14 16:57:30;;;;;;;;;;;;;;;;;;4942424;28;20377;-88
2022/06/14 17:00:18;;;;;;;;;;;;;;;;;;;;;
2022/06/14 17:06:13;;;;;;;;;;;;;;;;;;4969517;28;20276;-87
2022/06/14 17:09:06;;;;;;;;;;;;;;;;;;;;;
2022/06/14 17:11:56;;;;;;;;;;;;;;;;;;4889904;29;20005;-87
2022/06/14 17:14:53;;;;;;;;;;;;;;;;;;4901188;29;20569;-87
2022/06/14 17:35:19;;;;;;;;;;;;;;;;;;4808594;29;19989;-88
2022/06/14 17:38:23;;;;;;;;;;;;;;;;;;4793308;29;20027;-87
2022/06/14 17:41:10;;;;;;;;;;;;;;;;;;;;;
2022/06/14 17:49:44;;;;;;;;;;;;;;;;;;4816907;29;19977;-86
2022/06/14 17:56:01;;;;;;;;;;;;;;;;;;4778395;29;19929;-87
2022/06/14 18:04:40;;;;;;;;;;;;;;;;;;4817322;29;19932;-87
2022/06/14 18:10:06;;;;;;;;;;;;;;;;;;4877713;29;19943;-86
2022/06/14 18:12:45;;;;;;;;;;;;;;;;;;4903694;29;19995;-87
2022/06/14 18:15:40;;;;;;;;;;;;;;;;;;;;;
2022/06/14 18:18:28;;;;;;;;;;;;;;;;;;;;;
2022/06/14 18:21:18;;;;;;;;;;;;;;;;;;4922910;28;19926;-87
2022/06/14 18:27:21;;;;;;;;;;;;;;;;;;4901081;28;19937;-87
2022/06/14 18:30:20;;;;;;;;;;;;;;;;;;4928690;28;20412;-87
2022/06/14 18:33:24;;;;;;;;;;;;;;;;;;4927145;28;20341;-87
2022/06/14 18:39:11;;;;;;;;;;;;;;;;;;;;;
2022/06/14 18:47:40;;;;;;;;;;;;;;;;;;;;;
2022/06/14 18:53:36;;;;;;;;;;;;;;;;;;4909260;28;19977;-86
2022/06/14 19:02:31;;;;;;;;;;;;;;;;;;4948956;28;19930;-86
2022/06/14 19:05:06;;;;;;;;;;;;;;;;;;4912265;29;20378;-87
2022/06/14 19:07:59;;;;;;;;;;;;;;;;;;4896072;29;19931;-87
2022/06/14 19:10:34;;;;;;;;;;;;;;;;;;4851952;29;20010;-88
2022/06/14 19:24:47;;;;;;;;;;;;;;;;;;4964265;28;19929;-87
2022/06/14 19:27:59;;;;;;;;;;;;;;;;;;4940548;28;19929;-87
2022/06/14 19:30:33;;;;;;;;;;;;;;;;;;4990079;28;19933;-87
2022/06/14 19:36:32;;;;;;;;;;;;;;;;;;;;;
2022/06/14 19:39:15;;;;;;;;;;;;;;;;;;4965033;28;20007;-87
2022/06/14 19:42:09;;;;;;;;;;;;;;;;;;;;;
2022/06/14 19:45:13;;;;;;;;;;;;;;;;;;;;;
2022/06/14 19:47:48;;;;;;;;;;;;;;;;;;4866278;29;19975;-87
2022/06/14 19:50:55;;;;;;;;;;;;;;;;;;4870798;29;19971;-89
2022/06/14 19:56:05;;;;;;;;;;;;;;;;;;5360461;22;19947;-86
2022/06/14 19:59:00;;;;;;;;;;;;;;;;;;;;;
2022/06/14 20:07:47;;;;;;;;;;;;;;;;;;;;;
2022/06/14 20:10:19;;;;;;;;;;;;;;;;;;4904822;28;19931;-86
2022/06/14 20:16:14;;;;;;;;;;;;;;;;;;4906002;29;19981;-87
2022/06/14 20:18:44;;;;;;;;;;;;;;;;;;4872774;29;20429;-86
2022/06/14 20:21:31;;;;;;;;;;;;;;;;;;4897561;29;19938;-86
2022/06/14 20:24:31;;;;;;;;;;;;;;;;;;4875309;29;19994;-87
2022/06/14 20:27:36;;;;;;;;;;;;;;;;;;4849327;29;20395;-87
2022/06/14 20:39:40;;;;;;;;;;;;;;;;;;4890700;29;20425;-87
2022/06/14 20:42:16;;;;;;;;;;;;;;;;;;4898218;28;19930;-87
2022/06/14 20:45:08;;;;;;;;;;;;;;;;;;4967110;28;20035;-87
2022/06/14 20:47:44;;;;;;;;;;;;;;;;;;4962285;28;19930;-87
2022/06/14 20:53:09;;;;;;;;;;;;;;;;;;4950084;28;20574;-91
2022/06/14 20:55:48;;;;;;;;;;;;;;;;;;4928286;28;19934;-92
2022/06/14 20:58:21;;;;;;;;;;;;;;;;;;4935949;28;19929;-91
2022/06/14 21:12:21;;;;;;;;;;;;;;;;;;4952330;28;19972;-91
2022/06/14 21:14:50;;;;;;;;;;;;;;;;;;4920975;28;19988;-90
2022/06/14 21:17:21;;;;;;;;;;;;;;;;;;4920323;28;19926;-92
2022/06/14 21:19:56;;;;;;;;;;;;;;;;;;4939860;28;19930;-90
2022/06/14 21:22:22;;;;;;;;;;;;;;;;;;4959297;28;19925;-90
2022/06/14 21:24:48;;;;;;;;;;;;;;;;;;4946559;28;19976;-90
2022/06/14 21:27:17;;;;;;;;;;;;;;;;;;4945101;28;21041;-91
2022/06/14 21:29:43;;;;;;;;;;;;;;;;;;4952518;28;19929;-91
2022/06/14 21:32:12;;;;;;;;;;;;;;;;;;4940535;28;19937;-92
2022/06/14 21:34:38;;;;;;;;;;;;;;;;;;4955026;28;20114;-91
2022/06/14 21:37:04;;;;;;;;;;;;;;;;;;4962539;28;19926;-92
2022/06/14 21:39:30;;;;;;;;;;;;;;;;;;4953537;28;19930;-91
2022/06/14 21:41:56;;;;;;;;;;;;;;;;;;4936740;28;19929;-91
2022/06/14 21:44:22;;;;;;;;;;;;;;;;;;4959768;28;19975;-91
2022/06/14 21:46:48;;;;;;;;;;;;;;;;;;4961332;28;21802;-91
2022/06/14 21:49:17;;;;;;;;;;;;;;;;;;4962645;28;19933;-90
2022/06/14 21:51:43;;;;;;;;;;;;;;;;;;4959794;28;19929;-91
2022/06/14 21:54:09;;;;;;;;;;;;;;;;;;4961205;28;20310;-91
2022/06/14 21:56:35;;;;;;;;;;;;;;;;;;4956032;28;20020;-91
2022/06/14 21:59:01;;;;;;;;;;;;;;;;;;4952849;28;20588;-90
2022/06/14 22:01:30;;;;;;;;;;;;;;;;;;4953221;28;20411;-91
2022/06/14 22:04:01;;;;;;;;;;;;;;;;;;4972158;28;20364;-91
2022/06/14 22:06:39;;;;;;;;;;;;;;;;;;4955683;28;20431;-90
2022/06/14 22:09:08;;;;;;;;;;;;;;;;;;4954229;28;19997;-90
2022/06/14 22:11:37;;;;;;;;;;;;;;;;;;4968205;28;20375;-90
2022/06/14 22:14:03;;;;;;;;;;;;;;;;;;4963061;28;19932;-90
2022/06/14 22:16:34;;;;;;;;;;;;;;;;;;4951269;28;20249;-91
2022/06/14 22:19:11;;;;;;;;;;;;;;;;;;4956450;28;19932;-91
2022/06/14 22:21:39;;;;;;;;;;;;;;;;;;4962698;28;19922;-92
2022/06/14 22:26:50;;;;;;;;;;;;;;;;;;4968418;28;19929;-91
2022/06/14 22:29:29;;;;;;;;;;;;;;;;;;4952389;28;20380;-91
2022/06/14 22:31:55;;;;;;;;;;;;;;;;;;4984419;28;19988;-91
2022/06/14 22:34:26;;;;;;;;;;;;;;;;;;4969663;28;20379;-92
2022/06/14 22:36:59;;;;;;;;;;;;;;;;;;4967225;28;20480;-92
2022/06/14 22:39:25;;;;;;;;;;;;;;;;;;4963759;28;20541;-91
2022/06/14 22:41:56;;;;;;;;;;;;;;;;;;4959115;28;19922;-91
2022/06/14 22:44:28;;;;;;;;;;;;;;;;;;4962173;28;20012;-91
2022/06/14 22:46:55;;;;;;;;;;;;;;;;;;4955887;28;20120;-92
2022/06/14 22:49:24;;;;;;;;;;;;;;;;;;4956462;28;21458;-92
2022/06/14 22:51:56;;;;;;;;;;;;;;;;;;4952006;28;20113;-89
2022/06/14 22:54:31;;;;;;;;;;;;;;;;;;4972031;28;20340;-84
2022/06/14 22:57:05;;;;;;;;;;;;;;;;;;4973285;28;19933;-84
2022/06/14 22:59:33;;;;;;;;;;;;;;;;;;4960891;28;20541;-84
2022/06/14 23:02:01;;;;;;;;;;;;;;;;;;4959605;28;20562;-84
2022/06/14 23:04:28;;;;;;;;;;;;;;;;;;4941569;28;21347;-84
2022/06/14 23:06:59;;;;;;;;;;;;;;;;;;4947844;28;19965;-84
2022/06/14 23:09:28;;;;;;;;;;;;;;;;;;4955235;28;20260;-83
2022/06/14 23:11:57;;;;;;;;;;;;;;;;;;4958233;28;19925;-84
2022/06/14 23:14:32;;;;;;;;;;;;;;;;;;4953676;28;20646;-84
2022/06/14 23:17:05;;;;;;;;;;;;;;;;;;4963397;28;19930;-84
2022/06/14 23:19:37;;;;;;;;;;;;;;;;;;4957561;28;20695;-84
2022/06/14 23:22:12;;;;;;;;;;;;;;;;;;4949126;28;19981;-84
2022/06/14 23:27:51;;;;;;;;;;;;;;;;;;4955697;28;19936;-91
2022/06/14 23:36:08;;;;;;;;;;;;;;;;;;4943310;28;19929;-91
2022/06/14 23:41:38;;;;;;;;;;;;;;;;;;4934004;28;20024;-92
2022/06/14 23:44:32;;;;;;;;;;;;;;;;;;;;;
2022/06/14 23:46:59;;;;;;;;;;;;;;;;;;4947316;28;20396;-92
2022/06/14 23:52:52;;;;;;;;;;;;;;;;;;4961489;28;19933;-91
2022/06/14 23:55:36;;;;;;;;;;;;;;;;;;4958244;28;21833;-91
2022/06/14 23:58:29;;;;;;;;;;;;;;;;;;4977967;28;19933;-92
